Danville, Kentucky
Current Conditions -  °F | °C
As of 12:15 PM on Sunday 23 Nov 2014 (Local Time) from KDVK Reporting Station
Light Rain Light Rain  
Wind Chill: 54°   Ceiling: 7000
Heat Index: 54°   Visibility: 10mi
Dew Point: 45°   Wind: 7mph
Humidity: 72%   Direction: 150°SSE
Pressure: 29.84"   Gusts: NA
Location:  37.65°N, 84.77°W
Report Text: KDVK 231715Z AUTO 15006KT 10SM -RA SCT029 BKN070 OVC100 12/07 A2984 RMK AO2
Loading
Personal Weather Stations






























Interactive Weather Map New forecast layout! Learn more

10-Day Weather Forecast

Advertisements
Track Severe Weather on mobile